sensor_id;sensor_type;location;lat;lon;timestamp;P1;durP1;ratioP1;P2;durP2;ratioP2
64938;SDS011;51453;47.738;7.420;2022-12-15T00:01:30;45.13;;;23.48;;
64938;SDS011;51453;47.738;7.420;2022-12-15T00:04:14;46.13;;;23.10;;
64938;SDS011;51453;47.738;7.420;2022-12-15T00:06:58;47.78;;;23.65;;
64938;SDS011;51453;47.738;7.420;2022-12-15T00:09:42;45.92;;;23.55;;
64938;SDS011;51453;47.738;7.420;2022-12-15T00:12:26;50.42;;;24.55;;
64938;SDS011;51453;47.738;7.420;2022-12-15T00:15:10;53.05;;;25.50;;
64938;SDS011;51453;47.738;7.420;2022-12-15T00:17:54;48.83;;;25.02;;
64938;SDS011;51453;47.738;7.420;2022-12-15T00:20:38;50.53;;;23.13;;
64938;SDS011;51453;47.738;7.420;2022-12-15T00:23:22;45.03;;;22.67;;
64938;SDS011;51453;47.738;7.420;2022-12-15T00:26:06;42.03;;;21.85;;
64938;SDS011;51453;47.738;7.420;2022-12-15T00:28:50;43.67;;;22.27;;
64938;SDS011;51453;47.738;7.420;2022-12-15T00:31:34;47.60;;;22.30;;
64938;SDS011;51453;47.738;7.420;2022-12-15T00:34:18;50.28;;;24.73;;
64938;SDS011;51453;47.738;7.420;2022-12-15T00:37:02;47.33;;;23.48;;
64938;SDS011;51453;47.738;7.420;2022-12-15T00:39:46;49.63;;;24.42;;
64938;SDS011;51453;47.738;7.420;2022-12-15T00:42:22;45.50;;;23.30;;
64938;SDS011;51453;47.738;7.420;2022-12-15T00:44:49;53.38;;;26.70;;
64938;SDS011;51453;47.738;7.420;2022-12-15T00:47:15;53.75;;;25.45;;
64938;SDS011;51453;47.738;7.420;2022-12-15T00:49:41;46.65;;;23.90;;
64938;SDS011;51453;47.738;7.420;2022-12-15T00:52:25;48.35;;;24.55;;
64938;SDS011;51453;47.738;7.420;2022-12-15T00:55:10;47.35;;;24.08;;
64938;SDS011;51453;47.738;7.420;2022-12-15T00:57:54;49.95;;;25.40;;
64938;SDS011;51453;47.738;7.420;2022-12-15T01:00:38;49.85;;;25.45;;
64938;SDS011;51453;47.738;7.420;2022-12-15T01:03:23;51.92;;;25.95;;
64938;SDS011;51453;47.738;7.420;2022-12-15T01:06:14;53.65;;;26.25;;
64938;SDS011;51453;47.738;7.420;2022-12-15T01:09:00;47.70;;;23.75;;
64938;SDS011;51453;47.738;7.420;2022-12-15T01:11:45;50.15;;;24.60;;
64938;SDS011;51453;47.738;7.420;2022-12-15T01:14:29;48.60;;;23.88;;
64938;SDS011;51453;47.738;7.420;2022-12-15T01:17:13;44.50;;;23.35;;
64938;SDS011;51453;47.738;7.420;2022-12-15T01:19:58;55.83;;;25.55;;
64938;SDS011;51453;47.738;7.420;2022-12-15T01:22:59;47.22;;;23.90;;
64938;SDS011;51453;47.738;7.420;2022-12-15T01:25:25;56.45;;;27.08;;
64938;SDS011;51453;47.738;7.420;2022-12-15T01:27:51;47.65;;;23.45;;
64938;SDS011;51453;47.738;7.420;2022-12-15T01:30:19;46.95;;;23.88;;
64938;SDS011;51453;47.738;7.420;2022-12-15T01:32:46;42.55;;;21.90;;
64938;SDS011;51453;47.738;7.420;2022-12-15T01:35:12;39.08;;;20.90;;
64938;SDS011;51453;47.738;7.420;2022-12-15T01:37:38;37.45;;;21.02;;
64938;SDS011;51453;47.738;7.420;2022-12-15T01:40:04;40.33;;;21.65;;
64938;SDS011;51453;47.738;7.420;2022-12-15T01:42:49;46.65;;;22.92;;
64938;SDS011;51453;47.738;7.420;2022-12-15T01:47:54;47.50;;;24.45;;
64938;SDS011;51453;47.738;7.420;2022-12-15T01:50:24;51.05;;;25.33;;
64938;SDS011;51453;47.738;7.420;2022-12-15T01:52:51;53.38;;;26.58;;
64938;SDS011;51453;47.738;7.420;2022-12-15T01:55:19;55.38;;;26.30;;
64938;SDS011;51453;47.738;7.420;2022-12-15T01:57:50;48.75;;;25.70;;
64938;SDS011;51453;47.738;7.420;2022-12-15T02:00:19;47.25;;;24.73;;
64938;SDS011;51453;47.738;7.420;2022-12-15T02:02:44;50.50;;;25.33;;
64938;SDS011;51453;47.738;7.420;2022-12-15T02:05:10;51.67;;;25.65;;
64938;SDS011;51453;47.738;7.420;2022-12-15T02:07:36;48.88;;;25.52;;
64938;SDS011;51453;47.738;7.420;2022-12-15T02:10:03;51.50;;;26.05;;
64938;SDS011;51453;47.738;7.420;2022-12-15T02:12:46;46.75;;;23.63;;
64938;SDS011;51453;47.738;7.420;2022-12-15T02:15:32;50.75;;;24.52;;
64938;SDS011;51453;47.738;7.420;2022-12-15T02:21:16;54.70;;;25.17;;
64938;SDS011;51453;47.738;7.420;2022-12-15T02:31:51;53.25;;;25.98;;
64938;SDS011;51453;47.738;7.420;2022-12-15T02:37:55;67.15;;;29.85;;
64938;SDS011;51453;47.738;7.420;2022-12-15T02:39:54;67.50;;;30.42;;
64938;SDS011;51453;47.738;7.420;2022-12-15T02:42:20;71.60;;;30.75;;
64938;SDS011;51453;47.738;7.420;2022-12-15T03:01:24;89.35;;;35.72;;
64938;SDS011;51453;47.738;7.420;2022-12-15T03:04:07;86.03;;;35.40;;
64938;SDS011;51453;47.738;7.420;2022-12-15T03:06:34;79.10;;;34.20;;
64938;SDS011;51453;47.738;7.420;2022-12-15T03:09:00;80.15;;;33.13;;
64938;SDS011;51453;47.738;7.420;2022-12-15T03:11:26;77.88;;;33.00;;
64938;SDS011;51453;47.738;7.420;2022-12-15T03:13:52;84.13;;;33.03;;
64938;SDS011;51453;47.738;7.420;2022-12-15T03:16:18;86.00;;;34.33;;
64938;SDS011;51453;47.738;7.420;2022-12-15T03:18:45;89.35;;;35.53;;
64938;SDS011;51453;47.738;7.420;2022-12-15T03:21:11;91.70;;;37.00;;
64938;SDS011;51453;47.738;7.420;2022-12-15T03:23:36;100.70;;;38.00;;
64938;SDS011;51453;47.738;7.420;2022-12-15T03:26:02;87.40;;;34.53;;
64938;SDS011;51453;47.738;7.420;2022-12-15T03:28:28;82.03;;;33.60;;
64938;SDS011;51453;47.738;7.420;2022-12-15T03:30:54;77.57;;;33.05;;
64938;SDS011;51453;47.738;7.420;2022-12-15T03:33:20;84.03;;;33.83;;
64938;SDS011;51453;47.738;7.420;2022-12-15T03:35:46;70.22;;;30.55;;
64938;SDS011;51453;47.738;7.420;2022-12-15T03:38:12;78.07;;;31.40;;
64938;SDS011;51453;47.738;7.420;2022-12-15T03:40:37;69.97;;;30.90;;
64938;SDS011;51453;47.738;7.420;2022-12-15T03:43:03;67.93;;;29.65;;
64938;SDS011;51453;47.738;7.420;2022-12-15T03:45:29;71.85;;;30.23;;
64938;SDS011;51453;47.738;7.420;2022-12-15T03:47:55;69.82;;;30.35;;
64938;SDS011;51453;47.738;7.420;2022-12-15T03:50:22;69.43;;;29.90;;
64938;SDS011;51453;47.738;7.420;2022-12-15T03:52:51;79.43;;;31.00;;
64938;SDS011;51453;47.738;7.420;2022-12-15T03:55:20;68.57;;;29.08;;
64938;SDS011;51453;47.738;7.420;2022-12-15T03:57:47;76.93;;;31.00;;
64938;SDS011;51453;47.738;7.420;2022-12-15T04:00:13;72.60;;;29.83;;
64938;SDS011;51453;47.738;7.420;2022-12-15T04:02:40;76.00;;;30.75;;
64938;SDS011;51453;47.738;7.420;2022-12-15T04:05:06;76.07;;;30.80;;
64938;SDS011;51453;47.738;7.420;2022-12-15T04:07:33;68.65;;;29.42;;
64938;SDS011;51453;47.738;7.420;2022-12-15T04:09:58;72.57;;;30.15;;
64938;SDS011;51453;47.738;7.420;2022-12-15T04:12:24;68.60;;;29.63;;
64938;SDS011;51453;47.738;7.420;2022-12-15T04:14:50;64.90;;;27.90;;
64938;SDS011;51453;47.738;7.420;2022-12-15T04:17:18;63.47;;;27.50;;
64938;SDS011;51453;47.738;7.420;2022-12-15T04:19:43;67.15;;;28.55;;
64938;SDS011;51453;47.738;7.420;2022-12-15T04:22:28;64.40;;;28.42;;
64938;SDS011;51453;47.738;7.420;2022-12-15T04:24:53;68.72;;;28.95;;
64938;SDS011;51453;47.738;7.420;2022-12-15T04:27:37;61.45;;;27.42;;
64938;SDS011;51453;47.738;7.420;2022-12-15T04:30:22;61.50;;;27.70;;
64938;SDS011;51453;47.738;7.420;2022-12-15T04:33:06;62.88;;;26.75;;
64938;SDS011;51453;47.738;7.420;2022-12-15T04:35:50;61.05;;;27.65;;
64938;SDS011;51453;47.738;7.420;2022-12-15T04:38:35;70.15;;;28.70;;
64938;SDS011;51453;47.738;7.420;2022-12-15T04:41:20;67.35;;;28.75;;
64938;SDS011;51453;47.738;7.420;2022-12-15T04:44:06;69.93;;;29.75;;
64938;SDS011;51453;47.738;7.420;2022-12-15T04:46:50;67.72;;;28.98;;
64938;SDS011;51453;47.738;7.420;2022-12-15T04:49:34;67.15;;;29.40;;
64938;SDS011;51453;47.738;7.420;2022-12-15T04:52:18;66.78;;;29.30;;
64938;SDS011;51453;47.738;7.420;2022-12-15T04:55:02;69.35;;;29.02;;
64938;SDS011;51453;47.738;7.420;2022-12-15T04:57:47;69.13;;;29.02;;
64938;SDS011;51453;47.738;7.420;2022-12-15T05:00:31;60.33;;;26.83;;
64938;SDS011;51453;47.738;7.420;2022-12-15T05:03:15;66.47;;;28.77;;
64938;SDS011;51453;47.738;7.420;2022-12-15T05:05:59;61.83;;;29.92;;
64938;SDS011;51453;47.738;7.420;2022-12-15T05:08:43;73.90;;;30.17;;
64938;SDS011;51453;47.738;7.420;2022-12-15T05:11:27;60.72;;;28.65;;
64938;SDS011;51453;47.738;7.420;2022-12-15T05:14:11;71.68;;;30.50;;
64938;SDS011;51453;47.738;7.420;2022-12-15T05:16:55;68.32;;;30.25;;
64938;SDS011;51453;47.738;7.420;2022-12-15T05:19:39;68.40;;;30.60;;
64938;SDS011;51453;47.738;7.420;2022-12-15T05:22:24;76.85;;;32.08;;
64938;SDS011;51453;47.738;7.420;2022-12-15T05:25:08;75.38;;;31.45;;
64938;SDS011;51453;47.738;7.420;2022-12-15T05:27:52;72.63;;;30.25;;
64938;SDS011;51453;47.738;7.420;2022-12-15T05:30:36;72.15;;;32.47;;
64938;SDS011;51453;47.738;7.420;2022-12-15T05:33:21;72.22;;;32.05;;
64938;SDS011;51453;47.738;7.420;2022-12-15T05:35:46;65.65;;;30.63;;
64938;SDS011;51453;47.738;7.420;2022-12-15T05:38:12;67.75;;;30.98;;
64938;SDS011;51453;47.738;7.420;2022-12-15T05:40:37;63.08;;;29.08;;
64938;SDS011;51453;47.738;7.420;2022-12-15T05:43:03;68.07;;;30.75;;
64938;SDS011;51453;47.738;7.420;2022-12-15T05:45:29;74.72;;;31.88;;
64938;SDS011;51453;47.738;7.420;2022-12-15T05:47:54;66.18;;;30.90;;
64938;SDS011;51453;47.738;7.420;2022-12-15T05:50:21;71.50;;;31.92;;
64938;SDS011;51453;47.738;7.420;2022-12-15T05:52:47;69.18;;;30.50;;
64938;SDS011;51453;47.738;7.420;2022-12-15T05:55:14;75.90;;;32.55;;
64938;SDS011;51453;47.738;7.420;2022-12-15T05:57:40;77.55;;;33.08;;
64938;SDS011;51453;47.738;7.420;2022-12-15T06:00:06;73.97;;;32.85;;
64938;SDS011;51453;47.738;7.420;2022-12-15T06:02:32;67.78;;;31.52;;
64938;SDS011;51453;47.738;7.420;2022-12-15T06:04:58;76.35;;;32.80;;
64938;SDS011;51453;47.738;7.420;2022-12-15T06:07:24;71.30;;;31.30;;
64938;SDS011;51453;47.738;7.420;2022-12-15T06:09:49;82.05;;;34.25;;
64938;SDS011;51453;47.738;7.420;2022-12-15T06:12:15;81.40;;;34.20;;
64938;SDS011;51453;47.738;7.420;2022-12-15T06:14:41;82.38;;;34.28;;
64938;SDS011;51453;47.738;7.420;2022-12-15T06:17:06;75.00;;;35.10;;
64938;SDS011;51453;47.738;7.420;2022-12-15T06:19:32;83.90;;;35.30;;
64938;SDS011;51453;47.738;7.420;2022-12-15T06:21:58;78.43;;;34.33;;
64938;SDS011;51453;47.738;7.420;2022-12-15T06:24:24;79.10;;;35.17;;
64938;SDS011;51453;47.738;7.420;2022-12-15T06:26:50;82.15;;;35.38;;
64938;SDS011;51453;47.738;7.420;2022-12-15T06:29:16;81.47;;;34.90;;
64938;SDS011;51453;47.738;7.420;2022-12-15T06:31:42;69.38;;;32.55;;
64938;SDS011;51453;47.738;7.420;2022-12-15T06:34:12;68.93;;;31.63;;
64938;SDS011;51453;47.738;7.420;2022-12-15T06:36:39;101.18;;;34.55;;
64938;SDS011;51453;47.738;7.420;2022-12-15T06:39:06;80.00;;;33.65;;
64938;SDS011;51453;47.738;7.420;2022-12-15T06:41:34;67.80;;;32.47;;
64938;SDS011;51453;47.738;7.420;2022-12-15T06:44:00;72.90;;;32.75;;
64938;SDS011;51453;47.738;7.420;2022-12-15T06:46:27;79.28;;;34.83;;
64938;SDS011;51453;47.738;7.420;2022-12-15T06:48:54;74.82;;;33.33;;
64938;SDS011;51453;47.738;7.420;2022-12-15T06:51:21;79.10;;;34.33;;
64938;SDS011;51453;47.738;7.420;2022-12-15T06:53:47;85.18;;;35.72;;
64938;SDS011;51453;47.738;7.420;2022-12-15T06:56:46;92.07;;;37.30;;
64938;SDS011;51453;47.738;7.420;2022-12-15T06:59:05;96.90;;;38.75;;
64938;SDS011;51453;47.738;7.420;2022-12-15T07:01:32;94.07;;;37.28;;
64938;SDS011;51453;47.738;7.420;2022-12-15T07:03:58;89.53;;;38.28;;
64938;SDS011;51453;47.738;7.420;2022-12-15T07:06:25;88.65;;;37.53;;
64938;SDS011;51453;47.738;7.420;2022-12-15T07:08:52;95.72;;;38.17;;
64938;SDS011;51453;47.738;7.420;2022-12-15T07:11:18;98.93;;;39.30;;
64938;SDS011;51453;47.738;7.420;2022-12-15T07:13:49;90.30;;;36.08;;
64938;SDS011;51453;47.738;7.420;2022-12-15T07:16:16;86.55;;;36.03;;
64938;SDS011;51453;47.738;7.420;2022-12-15T07:18:42;76.28;;;34.92;;
64938;SDS011;51453;47.738;7.420;2022-12-15T07:21:08;75.40;;;34.30;;
64938;SDS011;51453;47.738;7.420;2022-12-15T07:23:34;77.13;;;34.90;;
64938;SDS011;51453;47.738;7.420;2022-12-15T07:26:04;76.05;;;34.67;;
64938;SDS011;51453;47.738;7.420;2022-12-15T07:31:16;79.53;;;34.72;;
64938;SDS011;51453;47.738;7.420;2022-12-15T07:33:41;80.47;;;35.53;;
64938;SDS011;51453;47.738;7.420;2022-12-15T07:36:07;79.10;;;36.05;;
64938;SDS011;51453;47.738;7.420;2022-12-15T07:38:33;77.63;;;35.55;;
64938;SDS011;51453;47.738;7.420;2022-12-15T07:41:03;69.35;;;33.33;;
64938;SDS011;51453;47.738;7.420;2022-12-15T07:43:31;65.25;;;31.55;;
64938;SDS011;51453;47.738;7.420;2022-12-15T07:45:57;65.95;;;32.45;;
64938;SDS011;51453;47.738;7.420;2022-12-15T07:48:22;60.22;;;31.17;;
64938;SDS011;51453;47.738;7.420;2022-12-15T07:50:48;59.13;;;30.17;;
64938;SDS011;51453;47.738;7.420;2022-12-15T07:53:15;64.15;;;31.33;;
64938;SDS011;51453;47.738;7.420;2022-12-15T07:55:41;65.05;;;31.10;;
64938;SDS011;51453;47.738;7.420;2022-12-15T07:58:07;62.75;;;30.25;;
64938;SDS011;51453;47.738;7.420;2022-12-15T08:00:32;68.00;;;31.70;;
64938;SDS011;51453;47.738;7.420;2022-12-15T08:03:00;67.70;;;32.20;;
64938;SDS011;51453;47.738;7.420;2022-12-15T08:05:26;74.65;;;34.05;;
64938;SDS011;51453;47.738;7.420;2022-12-15T08:07:52;66.75;;;32.17;;
64938;SDS011;51453;47.738;7.420;2022-12-15T08:10:18;82.47;;;34.75;;
64938;SDS011;51453;47.738;7.420;2022-12-15T08:12:43;74.22;;;34.40;;
64938;SDS011;51453;47.738;7.420;2022-12-15T08:15:09;74.57;;;33.53;;
64938;SDS011;51453;47.738;7.420;2022-12-15T08:17:36;81.53;;;36.47;;
64938;SDS011;51453;47.738;7.420;2022-12-15T08:20:02;72.28;;;35.38;;
64938;SDS011;51453;47.738;7.420;2022-12-15T08:22:28;70.25;;;32.95;;
64938;SDS011;51453;47.738;7.420;2022-12-15T08:24:54;67.45;;;33.95;;
64938;SDS011;51453;47.738;7.420;2022-12-15T08:27:19;73.53;;;33.95;;
64938;SDS011;51453;47.738;7.420;2022-12-15T08:29:45;74.50;;;35.35;;
64938;SDS011;51453;47.738;7.420;2022-12-15T08:32:11;68.38;;;33.78;;
64938;SDS011;51453;47.738;7.420;2022-12-15T08:34:38;81.43;;;35.25;;
64938;SDS011;51453;47.738;7.420;2022-12-15T08:37:06;75.93;;;36.88;;
64938;SDS011;51453;47.738;7.420;2022-12-15T08:39:32;90.00;;;37.80;;
64938;SDS011;51453;47.738;7.420;2022-12-15T08:41:58;87.03;;;37.78;;
64938;SDS011;51453;47.738;7.420;2022-12-15T08:44:23;91.68;;;40.83;;
64938;SDS011;51453;47.738;7.420;2022-12-15T08:46:49;90.63;;;40.20;;
64938;SDS011;51453;47.738;7.420;2022-12-15T08:49:15;96.57;;;39.85;;
64938;SDS011;51453;47.738;7.420;2022-12-15T08:51:40;97.13;;;42.33;;
64938;SDS011;51453;47.738;7.420;2022-12-15T08:54:07;95.07;;;40.92;;
64938;SDS011;51453;47.738;7.420;2022-12-15T08:56:34;93.65;;;41.17;;
64938;SDS011;51453;47.738;7.420;2022-12-15T08:59:00;91.72;;;39.88;;
64938;SDS011;51453;47.738;7.420;2022-12-15T09:01:26;109.32;;;43.78;;
64938;SDS011;51453;47.738;7.420;2022-12-15T09:03:55;94.82;;;41.47;;
64938;SDS011;51453;47.738;7.420;2022-12-15T09:06:22;110.60;;;43.40;;
64938;SDS011;51453;47.738;7.420;2022-12-15T09:08:54;103.55;;;42.17;;
64938;SDS011;51453;47.738;7.420;2022-12-15T09:11:20;94.95;;;41.70;;
64938;SDS011;51453;47.738;7.420;2022-12-15T09:13:47;101.03;;;42.63;;
64938;SDS011;51453;47.738;7.420;2022-12-15T09:16:14;106.00;;;42.63;;
64938;SDS011;51453;47.738;7.420;2022-12-15T09:18:41;108.25;;;44.35;;
64938;SDS011;51453;47.738;7.420;2022-12-15T09:23:39;111.93;;;44.28;;
64938;SDS011;51453;47.738;7.420;2022-12-15T09:26:06;107.32;;;43.72;;
64938;SDS011;51453;47.738;7.420;2022-12-15T09:28:38;114.10;;;45.85;;
64938;SDS011;51453;47.738;7.420;2022-12-15T09:31:17;120.75;;;44.72;;
64938;SDS011;51453;47.738;7.420;2022-12-15T09:33:45;115.75;;;44.65;;
64938;SDS011;51453;47.738;7.420;2022-12-15T09:36:12;103.28;;;42.85;;
64938;SDS011;51453;47.738;7.420;2022-12-15T09:38:38;104.75;;;41.50;;
64938;SDS011;51453;47.738;7.420;2022-12-15T09:43:38;109.22;;;44.35;;
64938;SDS011;51453;47.738;7.420;2022-12-15T09:49:29;125.07;;;45.28;;
64938;SDS011;51453;47.738;7.420;2022-12-15T09:52:17;130.38;;;45.65;;
64938;SDS011;51453;47.738;7.420;2022-12-15T09:54:46;129.80;;;46.92;;
64938;SDS011;51453;47.738;7.420;2022-12-15T09:59:51;116.03;;;46.28;;
64938;SDS011;51453;47.738;7.420;2022-12-15T10:08:03;124.80;;;47.58;;
64938;SDS011;51453;47.738;7.420;2022-12-15T10:10:33;113.95;;;46.17;;
64938;SDS011;51453;47.738;7.420;2022-12-15T10:13:49;126.15;;;47.58;;
64938;SDS011;51453;47.738;7.420;2022-12-15T10:21:55;135.27;;;46.08;;
64938;SDS011;51453;47.738;7.420;2022-12-15T10:24:22;125.20;;;46.67;;
64938;SDS011;51453;47.738;7.420;2022-12-15T10:29:44;143.27;;;49.85;;
64938;SDS011;51453;47.738;7.420;2022-12-15T10:34:47;137.30;;;51.72;;
64938;SDS011;51453;47.738;7.420;2022-12-15T10:37:16;135.52;;;50.17;;
64938;SDS011;51453;47.738;7.420;2022-12-15T10:39:45;119.35;;;47.88;;
64938;SDS011;51453;47.738;7.420;2022-12-15T10:42:22;104.88;;;44.33;;
64938;SDS011;51453;47.738;7.420;2022-12-15T10:44:50;120.47;;;46.88;;
64938;SDS011;51453;47.738;7.420;2022-12-15T10:49:49;127.78;;;48.72;;
64938;SDS011;51453;47.738;7.420;2022-12-15T10:54:50;113.70;;;45.88;;
64938;SDS011;51453;47.738;7.420;2022-12-15T10:57:27;116.38;;;47.40;;
64938;SDS011;51453;47.738;7.420;2022-12-15T11:00:00;124.20;;;49.03;;
64938;SDS011;51453;47.738;7.420;2022-12-15T11:02:42;124.35;;;48.58;;
64938;SDS011;51453;47.738;7.420;2022-12-15T11:07:41;115.45;;;45.35;;
64938;SDS011;51453;47.738;7.420;2022-12-15T11:15:41;119.53;;;46.40;;
64938;SDS011;51453;47.738;7.420;2022-12-15T11:24:03;103.50;;;41.30;;
64938;SDS011;51453;47.738;7.420;2022-12-15T11:29:15;114.05;;;44.10;;
64938;SDS011;51453;47.738;7.420;2022-12-15T11:31:43;118.13;;;46.13;;
64938;SDS011;51453;47.738;7.420;2022-12-15T11:34:13;121.43;;;46.28;;
64938;SDS011;51453;47.738;7.420;2022-12-15T11:42:13;130.45;;;46.70;;
64938;SDS011;51453;47.738;7.420;2022-12-15T12:18:30;102.47;;;41.97;;
64938;SDS011;51453;47.738;7.420;2022-12-15T12:26:22;119.07;;;45.80;;
64938;SDS011;51453;47.738;7.420;2022-12-15T12:31:54;136.55;;;48.20;;
64938;SDS011;51453;47.738;7.420;2022-12-15T12:34:36;128.52;;;48.97;;
64938;SDS011;51453;47.738;7.420;2022-12-15T12:37:35;146.20;;;50.20;;
64938;SDS011;51453;47.738;7.420;2022-12-15T12:42:59;132.00;;;49.15;;
64938;SDS011;51453;47.738;7.420;2022-12-15T12:45:39;124.20;;;46.17;;
64938;SDS011;51453;47.738;7.420;2022-12-15T12:48:27;143.05;;;47.88;;
64938;SDS011;51453;47.738;7.420;2022-12-15T12:51:11;139.75;;;48.55;;
64938;SDS011;51453;47.738;7.420;2022-12-15T12:53:40;135.25;;;48.05;;
64938;SDS011;51453;47.738;7.420;2022-12-15T12:56:06;142.57;;;49.47;;
64938;SDS011;51453;47.738;7.420;2022-12-15T12:58:51;149.60;;;49.67;;
64938;SDS011;51453;47.738;7.420;2022-12-15T13:04:42;155.60;;;51.17;;
64938;SDS011;51453;47.738;7.420;2022-12-15T13:09:23;154.48;;;50.67;;
64938;SDS011;51453;47.738;7.420;2022-12-15T13:12:00;154.32;;;50.80;;
64938;SDS011;51453;47.738;7.420;2022-12-15T13:16:55;172.85;;;54.22;;
64938;SDS011;51453;47.738;7.420;2022-12-15T13:22:31;154.57;;;50.63;;
64938;SDS011;51453;47.738;7.420;2022-12-15T13:25:21;156.63;;;50.78;;
64938;SDS011;51453;47.738;7.420;2022-12-15T13:28:02;156.48;;;50.17;;
64938;SDS011;51453;47.738;7.420;2022-12-15T13:44:48;162.68;;;50.13;;
64938;SDS011;51453;47.738;7.420;2022-12-15T13:46:54;176.77;;;54.15;;
64938;SDS011;51453;47.738;7.420;2022-12-15T13:52:11;185.35;;;53.42;;
64938;SDS011;51453;47.738;7.420;2022-12-15T13:54:56;187.13;;;55.40;;
64938;SDS011;51453;47.738;7.420;2022-12-15T13:57:24;187.85;;;53.03;;
64938;SDS011;51453;47.738;7.420;2022-12-15T13:59:51;175.73;;;53.08;;
64938;SDS011;51453;47.738;7.420;2022-12-15T14:02:43;193.48;;;56.20;;
64938;SDS011;51453;47.738;7.420;2022-12-15T14:07:42;215.32;;;57.78;;
64938;SDS011;51453;47.738;7.420;2022-12-15T14:10:21;222.25;;;60.55;;
64938;SDS011;51453;47.738;7.420;2022-12-15T14:12:50;233.00;;;61.08;;
64938;SDS011;51453;47.738;7.420;2022-12-15T14:15:21;205.75;;;58.42;;
64938;SDS011;51453;47.738;7.420;2022-12-15T14:17:59;208.82;;;58.15;;
64938;SDS011;51453;47.738;7.420;2022-12-15T14:20:37;207.25;;;57.72;;
64938;SDS011;51453;47.738;7.420;2022-12-15T14:23:17;224.32;;;58.00;;
64938;SDS011;51453;47.738;7.420;2022-12-15T14:25:55;230.70;;;60.42;;
64938;SDS011;51453;47.738;7.420;2022-12-15T14:28:23;237.20;;;61.10;;
64938;SDS011;51453;47.738;7.420;2022-12-15T14:30:57;238.95;;;61.13;;
64938;SDS011;51453;47.738;7.420;2022-12-15T14:33:30;226.05;;;60.97;;
64938;SDS011;51453;47.738;7.420;2022-12-15T14:36:00;241.75;;;65.57;;
64938;SDS011;51453;47.738;7.420;2022-12-15T14:38:31;251.32;;;63.60;;
64938;SDS011;51453;47.738;7.420;2022-12-15T14:41:19;269.50;;;64.93;;
64938;SDS011;51453;47.738;7.420;2022-12-15T14:43:47;245.50;;;60.92;;
64938;SDS011;51453;47.738;7.420;2022-12-15T14:46:20;245.25;;;61.65;;
64938;SDS011;51453;47.738;7.420;2022-12-15T14:48:52;227.60;;;59.92;;
64938;SDS011;51453;47.738;7.420;2022-12-15T14:51:24;212.45;;;57.22;;
64938;SDS011;51453;47.738;7.420;2022-12-15T14:53:53;223.30;;;59.55;;
64938;SDS011;51453;47.738;7.420;2022-12-15T14:59:45;250.30;;;61.83;;
64938;SDS011;51453;47.738;7.420;2022-12-15T15:01:50;238.88;;;61.00;;
64938;SDS011;51453;47.738;7.420;2022-12-15T15:04:24;232.18;;;60.85;;
64938;SDS011;51453;47.738;7.420;2022-12-15T15:09:28;230.02;;;59.17;;
64938;SDS011;51453;47.738;7.420;2022-12-15T15:11:57;237.15;;;59.72;;
64938;SDS011;51453;47.738;7.420;2022-12-15T15:19:38;248.40;;;61.40;;
64938;SDS011;51453;47.738;7.420;2022-12-15T15:22:33;233.73;;;60.88;;
64938;SDS011;51453;47.738;7.420;2022-12-15T15:30:41;265.95;;;62.05;;
64938;SDS011;51453;47.738;7.420;2022-12-15T15:33:08;269.55;;;63.08;;
64938;SDS011;51453;47.738;7.420;2022-12-15T15:35:34;262.50;;;64.18;;
64938;SDS011;51453;47.738;7.420;2022-12-15T15:38:04;243.38;;;62.83;;
64938;SDS011;51453;47.738;7.420;2022-12-15T15:40:40;222.63;;;60.53;;
64938;SDS011;51453;47.738;7.420;2022-12-15T15:43:11;224.25;;;58.50;;
64938;SDS011;51453;47.738;7.420;2022-12-15T15:45:41;211.25;;;62.28;;
64938;SDS011;51453;47.738;7.420;2022-12-15T15:48:08;226.63;;;60.58;;
64938;SDS011;51453;47.738;7.420;2022-12-15T15:50:39;224.18;;;59.70;;
64938;SDS011;51453;47.738;7.420;2022-12-15T15:53:04;222.40;;;59.35;;
64938;SDS011;51453;47.738;7.420;2022-12-15T15:55:30;218.80;;;61.33;;
64938;SDS011;51453;47.738;7.420;2022-12-15T15:57:57;226.48;;;62.88;;
64938;SDS011;51453;47.738;7.420;2022-12-15T16:00:23;211.07;;;62.60;;
64938;SDS011;51453;47.738;7.420;2022-12-15T16:02:50;190.65;;;57.83;;
64938;SDS011;51453;47.738;7.420;2022-12-15T16:05:16;197.25;;;57.72;;
64938;SDS011;51453;47.738;7.420;2022-12-15T16:07:42;203.13;;;59.85;;
64938;SDS011;51453;47.738;7.420;2022-12-15T16:10:10;195.73;;;60.22;;
64938;SDS011;51453;47.738;7.420;2022-12-15T16:12:42;209.73;;;61.60;;
64938;SDS011;51453;47.738;7.420;2022-12-15T16:15:15;212.77;;;61.37;;
64938;SDS011;51453;47.738;7.420;2022-12-15T16:17:41;206.27;;;61.05;;
64938;SDS011;51453;47.738;7.420;2022-12-15T16:20:08;200.25;;;60.08;;
64938;SDS011;51453;47.738;7.420;2022-12-15T16:22:35;208.90;;;61.50;;
64938;SDS011;51453;47.738;7.420;2022-12-15T16:25:01;186.95;;;57.30;;
64938;SDS011;51453;47.738;7.420;2022-12-15T16:27:27;205.15;;;60.03;;
64938;SDS011;51453;47.738;7.420;2022-12-15T16:29:53;204.85;;;59.92;;
64938;SDS011;51453;47.738;7.420;2022-12-15T16:32:18;205.43;;;61.78;;
64938;SDS011;51453;47.738;7.420;2022-12-15T16:34:44;210.43;;;63.22;;
64938;SDS011;51453;47.738;7.420;2022-12-15T16:37:25;198.63;;;60.97;;
64938;SDS011;51453;47.738;7.420;2022-12-15T16:39:52;214.10;;;63.97;;
64938;SDS011;51453;47.738;7.420;2022-12-15T16:42:17;224.10;;;66.13;;
64938;SDS011;51453;47.738;7.420;2022-12-15T16:44:43;234.40;;;65.80;;
64938;SDS011;51453;47.738;7.420;2022-12-15T16:47:09;233.65;;;65.35;;
64938;SDS011;51453;47.738;7.420;2022-12-15T16:49:34;224.18;;;70.28;;
64938;SDS011;51453;47.738;7.420;2022-12-15T16:52:00;229.60;;;69.15;;
64938;SDS011;51453;47.738;7.420;2022-12-15T16:54:26;218.13;;;66.32;;
64938;SDS011;51453;47.738;7.420;2022-12-15T16:56:55;219.32;;;66.28;;
64938;SDS011;51453;47.738;7.420;2022-12-15T16:59:23;221.60;;;66.30;;
64938;SDS011;51453;47.738;7.420;2022-12-15T17:01:52;241.57;;;69.15;;
64938;SDS011;51453;47.738;7.420;2022-12-15T17:04:19;227.35;;;68.15;;
64938;SDS011;51453;47.738;7.420;2022-12-15T17:06:45;232.77;;;67.65;;
64938;SDS011;51453;47.738;7.420;2022-12-15T17:09:12;228.63;;;64.85;;
64938;SDS011;51453;47.738;7.420;2022-12-15T17:11:46;225.77;;;67.18;;
64938;SDS011;51453;47.738;7.420;2022-12-15T17:14:12;217.68;;;64.50;;
64938;SDS011;51453;47.738;7.420;2022-12-15T17:16:38;225.75;;;65.78;;
64938;SDS011;51453;47.738;7.420;2022-12-15T17:19:04;225.55;;;65.80;;
64938;SDS011;51453;47.738;7.420;2022-12-15T17:21:34;223.70;;;65.32;;
64938;SDS011;51453;47.738;7.420;2022-12-15T17:24:06;222.15;;;66.30;;
64938;SDS011;51453;47.738;7.420;2022-12-15T17:26:37;217.18;;;66.20;;
64938;SDS011;51453;47.738;7.420;2022-12-15T17:29:14;217.98;;;67.20;;
64938;SDS011;51453;47.738;7.420;2022-12-15T17:31:44;230.90;;;67.20;;
64938;SDS011;51453;47.738;7.420;2022-12-15T17:37:08;225.90;;;65.35;;
64938;SDS011;51453;47.738;7.420;2022-12-15T17:39:37;206.63;;;65.03;;
64938;SDS011;51453;47.738;7.420;2022-12-15T17:42:04;235.20;;;69.00;;
64938;SDS011;51453;47.738;7.420;2022-12-15T17:44:43;215.43;;;66.70;;
64938;SDS011;51453;47.738;7.420;2022-12-15T17:47:11;207.35;;;65.75;;